Time;durP1;ratioP1;P1;durP2;ratioP2;P2;SDS_P1;SDS_P2;PMS_P1;PMS_P2;Temp;Humidity;BMP_temperature;BMP_pressure;BME280_temperature;BME280_humidity;BME280_pressure;Samples;Min_cycle;Max_cycle;Signal;HPM_P1;HPM_P2
2021/08/18 00:00:59;;;;;;;12.48;4.50;;;;;;;21.40;52.45;100588.81;5074634;28;20397;-65
2021/08/18 00:03:28;;;;;;;9.18;4.50;;;;;;;21.45;52.52;100603.63;5075113;28;20045;-65
2021/08/18 00:05:55;;;;;;;9.15;4.20;;;;;;;21.40;52.60;100586.84;5073507;28;20056;-65
2021/08/18 00:08:22;;;;;;;16.15;4.70;;;;;;;21.36;52.48;100597.22;5068327;28;20091;-65
2021/08/18 00:10:49;;;;;;;11.57;4.45;;;;;;;21.16;52.72;100558.34;5056946;28;20103;-65
2021/08/18 00:13:17;;;;;;;12.63;4.05;;;;;;;21.34;52.54;100585.41;5074501;28;20135;-65
2021/08/18 00:15:44;;;;;;;10.00;4.10;;;;;;;21.29;52.44;100579.91;5073695;28;20392;-65
2021/08/18 00:18:11;;;;;;;9.45;4.30;;;;;;;21.36;52.36;100591.53;5074423;28;20139;-65
2021/08/18 00:20:38;;;;;;;7.97;4.30;;;;;;;21.31;52.42;100586.06;5074388;28;20481;-63
2021/08/18 00:23:05;;;;;;;10.43;4.63;;;;;;;21.36;52.05;100585.03;5073086;28;20135;-64
2021/08/18 00:25:32;;;;;;;10.80;3.90;;;;;;;21.35;52.21;100580.53;5058706;28;20132;-64
2021/08/18 00:27:59;;;;;;;9.43;5.03;;;;;;;21.37;52.05;100579.00;5054327;28;20077;-63
2021/08/18 00:30:27;;;;;;;10.27;4.15;;;;;;;21.29;52.11;100557.19;5054193;28;20580;-64
2021/08/18 00:32:54;;;;;;;10.27;4.57;;;;;;;21.36;52.13;100571.66;5056968;28;20132;-63
2021/08/18 00:35:22;;;;;;;11.75;4.88;;;;;;;21.36;52.08;100565.97;5074017;28;20040;-63
2021/08/18 00:37:48;;;;;;;16.00;4.68;;;;;;;21.16;52.09;100535.63;5073066;28;20068;-63
2021/08/18 00:40:16;;;;;;;12.60;4.75;;;;;;;21.26;51.98;100543.69;5074189;28;20083;-65
2021/08/18 00:42:44;;;;;;;9.57;4.45;;;;;;;21.33;52.01;100551.63;5073274;28;20084;-65
2021/08/18 00:45:17;;;;;;;10.90;5.97;;;;;;;21.27;51.95;100548.19;5073712;28;20381;-65
2021/08/18 00:47:48;;;;;;;17.15;4.65;;;;;;;21.29;52.00;100545.81;5054066;28;20045;-63
2021/08/18 00:50:22;;;;;;;19.90;5.60;;;;;;;21.26;51.91;100538.00;5054124;28;20149;-63
2021/08/18 00:52:49;;;;;;;11.07;4.75;;;;;;;21.24;52.06;100548.91;5054086;28;20120;-65
2021/08/18 00:55:19;;;;;;;18.27;5.03;;;;;;;21.22;52.23;100537.88;5072003;28;20055;-65
2021/08/18 00:57:46;;;;;;;7.05;4.05;;;;;;;21.23;52.02;100535.84;5081550;28;20131;-65
2021/08/18 01:00:15;;;;;;;8.05;4.30;;;;;;;21.17;51.95;100521.09;5053712;28;20084;-65
2021/08/18 01:02:44;;;;;;;8.05;3.80;;;;;;;21.24;52.15;100540.38;5053406;28;20063;-64
2021/08/18 01:05:15;;;;;;;8.27;3.80;;;;;;;21.24;51.89;100531.84;5052683;28;20103;-65
2021/08/18 01:07:42;;;;;;;11.07;3.83;;;;;;;21.22;52.25;100525.69;5053534;28;20377;-65
2021/08/18 01:10:13;;;;;;;6.70;3.35;;;;;;;21.23;51.97;100521.66;5053457;28;20052;-64
2021/08/18 01:12:40;;;;;;;7.80;3.85;;;;;;;21.22;51.89;100520.84;5035431;28;20538;-64
2021/08/18 01:15:10;;;;;;;8.65;3.72;;;;;;;21.22;51.91;100520.84;5064063;28;20492;-64
2021/08/18 01:17:44;;;;;;;;;;;;;;;21.11;51.81;100527.34;5073636;28;20135;-64
2021/08/18 01:20:14;;;;;;;11.13;4.43;;;;;;;21.15;51.95;100525.44;5073346;28;20022;-65
2021/08/18 01:22:42;;;;;;;9.32;4.05;;;;;;;21.12;52.07;100520.47;5072511;28;20481;-64
2021/08/18 01:25:10;;;;;;;11.65;4.05;;;;;;;21.06;52.09;100514.22;5073031;28;20136;-64
2021/08/18 01:27:43;;;;;;;12.40;4.07;;;;;;;21.09;52.33;100516.31;5073219;28;20083;-64
2021/08/18 01:30:10;;;;;;;14.32;4.57;;;;;;;21.10;52.25;100520.00;5054071;28;20045;-64
2021/08/18 01:32:41;;;;;;;8.77;4.28;;;;;;;21.09;52.33;100513.47;5061140;28;20567;-65
2021/08/18 01:35:18;;;;;;;14.18;4.43;;;;;;;21.09;52.14;100515.50;5073142;28;20136;-64
2021/08/18 01:37:45;;;;;;;9.68;4.68;;;;;;;21.10;52.29;100525.69;5073064;28;20465;-65
2021/08/18 01:40:12;;;;;;;10.52;4.70;;;;;;;21.10;52.32;100514.34;5072052;28;20127;-64
2021/08/18 01:42:40;;;;;;;11.00;3.90;;;;;;;21.09;52.46;100526.84;5055323;28;20136;-64
2021/08/18 01:45:08;;;;;;;9.93;4.53;;;;;;;21.08;52.29;100523.19;5052694;28;20136;-64
2021/08/18 01:47:35;;;;;;;12.65;4.13;;;;;;;21.06;52.31;100529.22;5070569;28;20124;-64
2021/08/18 01:50:03;;;;;;;7.13;3.95;;;;;;;21.02;52.44;100521.75;5060968;28;20136;-64
2021/08/18 01:52:30;;;;;;;10.57;4.22;;;;;;;20.93;52.27;100516.19;5052535;28;20092;-64
2021/08/18 01:54:59;;;;;;;10.05;5.00;;;;;;;20.94;52.63;100512.16;5052865;28;20455;-65
2021/08/18 01:57:26;;;;;;;10.80;4.75;;;;;;;20.93;52.67;100510.50;5057901;28;20127;-64
2021/08/18 01:59:53;;;;;;;12.73;4.25;;;;;;;20.92;52.80;100511.69;5072875;28;20124;-64
2021/08/18 02:02:20;;;;;;;8.10;3.90;;;;;;;20.90;52.75;100511.22;5072533;28;20517;-65
2021/08/18 02:04:47;;;;;;;11.35;4.28;;;;;;;20.88;52.58;100505.03;5072430;28;20053;-64
2021/08/18 02:07:14;;;;;;;8.75;4.20;;;;;;;20.89;52.51;100509.56;5059297;28;20128;-64
2021/08/18 02:09:41;;;;;;;10.13;4.35;;;;;;;20.87;52.95;100508.25;5034890;28;20124;-64
2021/08/18 02:12:08;;;;;;;8.52;4.68;;;;;;;20.82;52.65;100495.94;5052267;28;20063;-64
2021/08/18 02:14:36;;;;;;;9.13;4.68;;;;;;;20.75;52.89;100486.31;5065868;28;20127;-64
2021/08/18 02:17:03;;;;;;;11.55;4.80;;;;;;;20.83;52.87;100493.94;5072335;28;20128;-65
2021/08/18 02:19:30;;;;;;;11.52;4.97;;;;;;;20.82;52.75;100507.31;5072249;28;20132;-65
2021/08/18 02:21:57;;;;;;;11.82;4.95;;;;;;;20.77;52.82;100503.84;5070977;28;20700;-65
2021/08/18 02:24:24;;;;;;;10.13;4.18;;;;;;;20.77;52.81;100503.84;5057645;28;20127;-65
2021/08/18 02:26:51;;;;;;;12.50;4.68;;;;;;;20.70;53.10;100500.75;5051965;28;20116;-65
2021/08/18 02:29:18;;;;;;;10.88;4.32;;;;;;;20.68;53.10;100501.09;5052160;28;20492;-65
2021/08/18 02:31:44;;;;;;;10.32;4.18;;;;;;;20.67;53.24;100509.97;5052442;28;20076;-64
2021/08/18 02:34:12;;;;;;;10.77;4.05;;;;;;;20.57;53.22;100497.88;5051968;28;20443;-65
2021/08/18 02:36:39;;;;;;;24.02;5.47;;;;;;;20.64;53.32;100510.66;5051623;28;20191;-65
2021/08/18 02:39:07;;;;;;;9.30;4.13;;;;;;;20.59;53.45;100497.53;5072365;28;20083;-65
2021/08/18 02:41:34;;;;;;;13.20;4.95;;;;;;;20.62;53.51;100513.88;5063531;28;20127;-64
2021/08/18 02:44:02;;;;;;;10.82;4.75;;;;;;;20.56;53.46;100504.72;5071305;28;20045;-64
2021/08/18 02:46:28;;;;;;;8.27;3.75;;;;;;;20.57;53.61;100511.22;5071118;28;20080;-65
2021/08/18 02:48:55;;;;;;;10.10;4.32;;;;;;;20.54;53.56;100507.06;5071775;28;20564;-65
2021/08/18 02:51:22;;;;;;;11.35;4.00;;;;;;;20.48;53.61;100505.63;5087403;28;20127;-64
2021/08/18 02:53:49;;;;;;;10.77;4.45;;;;;;;20.47;53.69;100506.78;5066323;28;20041;-64
2021/08/18 02:56:16;;;;;;;13.60;4.35;;;;;;;20.34;53.88;100499.41;5051642;28;20140;-64
2021/08/18 02:58:43;;;;;;;16.98;5.30;;;;;;;20.41;53.87;100502.53;5052808;28;20080;-65
2021/08/18 03:01:09;;;;;;;15.27;5.25;;;;;;;20.42;54.19;100507.00;5051727;28;20120;-64
2021/08/18 03:03:36;;;;;;;13.00;4.93;;;;;;;20.38;53.93;100503.22;5050534;28;20087;-64
2021/08/18 03:06:03;;;;;;;12.65;4.90;;;;;;;20.39;54.24;100510.53;5051682;28;20131;-64
2021/08/18 03:08:30;;;;;;;16.20;5.18;;;;;;;20.34;54.23;100520.09;5051468;28;20119;-64
2021/08/18 03:10:57;;;;;;;11.05;4.80;;;;;;;20.26;54.32;100511.66;5065878;28;20083;-64
2021/08/18 03:13:23;;;;;;;10.30;4.55;;;;;;;20.21;54.45;100507.03;5071665;28;20128;-64
2021/08/18 03:15:50;;;;;;;11.95;4.57;;;;;;;20.11;54.80;100504.63;5053444;28;20091;-64
2021/08/18 03:18:17;;;;;;;12.75;5.45;;;;;;;20.11;55.05;100510.28;5051825;28;20059;-65
2021/08/18 03:20:44;;;;;;;13.38;5.70;;;;;;;20.08;54.88;100519.50;5051589;28;20052;-65
2021/08/18 03:23:11;;;;;;;13.10;5.35;;;;;;;20.05;55.21;100509.66;5052160;28;20378;-65
2021/08/18 03:25:38;;;;;;;18.67;5.30;;;;;;;20.01;55.03;100494.53;5062706;28;20068;-65
2021/08/18 03:28:05;;;;;;;18.98;7.13;;;;;;;19.99;55.21;100494.03;5073812;28;20091;-64
2021/08/18 03:30:31;;;;;;;20.88;6.32;;;;;;;19.83;54.96;100468.34;5074834;28;20544;-65
2021/08/18 03:32:58;;;;;;;20.27;6.18;;;;;;;20.03;55.23;100503.53;5074395;28;20460;-65
2021/08/18 03:35:25;;;;;;;20.92;5.72;;;;;;;20.04;54.76;100502.34;5075103;28;20131;-65
2021/08/18 03:37:52;;;;;;;16.45;5.65;;;;;;;19.97;54.93;100482.22;5074162;28;20071;-65
2021/08/18 03:40:19;;;;;;;12.90;4.65;;;;;;;20.06;55.21;100497.13;5053793;28;20049;-65
2021/08/18 03:42:46;;;;;;;12.05;5.25;;;;;;;19.96;55.19;100485.38;5061403;28;20052;-65
2021/08/18 03:45:13;;;;;;;10.48;5.22;;;;;;;19.94;55.25;100488.59;5075249;28;20123;-64
2021/08/18 03:47:40;;;;;;;15.30;5.05;;;;;;;19.91;55.13;100486.44;5074024;28;20544;-64
2021/08/18 03:50:07;;;;;;;14.93;5.32;;;;;;;19.78;55.52;100476.19;5055176;28;20133;-64
2021/08/18 03:52:41;;;;;;;11.25;5.10;;;;;;;19.91;55.22;100494.94;5064490;28;20588;-64
2021/08/18 03:55:11;;;;;;;19.92;5.43;;;;;;;19.88;55.35;100472.97;5074626;28;20143;-64
2021/08/18 03:57:38;;;;;;;13.02;5.88;;;;;;;19.90;55.31;100479.13;5091709;28;20457;-64
2021/08/18 04:00:08;;;;;;;12.30;5.20;;;;;;;19.95;55.41;100484.56;5064891;28;20136;-64
2021/08/18 04:02:36;;;;;;;19.05;5.43;;;;;;;19.93;55.09;100469.94;5074521;28;20041;-64
2021/08/18 04:05:04;;;;;;;13.93;5.65;;;;;;;19.96;55.24;100480.53;5071614;28;20052;-64
2021/08/18 04:07:30;;;;;;;15.82;4.97;;;;;;;19.91;55.25;100469.44;5054936;28;20468;-65
2021/08/18 04:09:57;;;;;;;14.10;5.63;;;;;;;19.92;55.24;100468.25;5054339;28;20149;-64
2021/08/18 04:12:24;;;;;;;17.95;5.57;;;;;;;19.95;55.17;100459.06;5069140;28;20080;-64
2021/08/18 04:14:51;;;;;;;19.30;4.93;;;;;;;19.93;55.32;100469.94;5074560;28;20390;-65
2021/08/18 04:17:18;;;;;;;15.88;5.05;;;;;;;19.89;55.34;100468.94;5073861;28;20542;-64
2021/08/18 04:19:45;;;;;;;14.80;4.57;;;;;;;19.87;55.37;100483.47;5074720;28;20075;-65
2021/08/18 04:22:12;;;;;;;19.27;4.75;;;;;;;19.67;55.49;100467.28;5089387;28;20559;-64
2021/08/18 04:24:38;;;;;;;20.35;5.57;;;;;;;19.71;55.75;100478.75;5074306;28;20131;-64
2021/08/18 04:27:05;;;;;;;19.10;6.15;;;;;;;19.70;56.16;100480.75;5072996;28;20132;-64
2021/08/18 04:29:32;;;;;;;19.10;6.18;;;;;;;19.59;56.16;100470.97;5073047;28;20080;-65
2021/08/18 04:32:00;;;;;;;21.98;6.32;;;;;;;19.56;56.35;100475.31;5074209;28;20052;-65
2021/08/18 04:34:27;;;;;;;14.00;6.55;;;;;;;19.49;56.44;100469.38;5074055;28;20524;-65
2021/08/18 04:36:54;;;;;;;15.05;6.75;;;;;;;19.41;56.68;100473.06;5072771;28;20135;-64
2021/08/18 04:39:20;;;;;;;12.90;6.05;;;;;;;19.40;57.17;100480.75;5066935;28;20083;-64
2021/08/18 04:41:47;;;;;;;15.55;5.68;;;;;;;19.36;57.15;100476.13;5072259;28;20131;-64
2021/08/18 04:44:14;;;;;;;14.98;6.50;;;;;;;19.36;56.99;100478.94;5072394;28;20131;-64
2021/08/18 04:46:41;;;;;;;19.65;6.93;;;;;;;19.33;57.21;100480.44;5053811;28;20128;-64
2021/08/18 04:49:07;;;;;;;15.18;6.90;;;;;;;19.29;57.28;100470.97;5053898;28;20076;-64
2021/08/18 04:51:34;;;;;;;17.88;5.93;;;;;;;19.30;57.22;100469.81;5053818;28;20069;-64
2021/08/18 04:54:01;;;;;;;15.48;6.00;;;;;;;19.21;57.12;100456.88;5067969;28;20079;-64
2021/08/18 04:56:28;;;;;;;15.82;6.30;;;;;;;19.30;57.45;100478.28;5066969;28;20147;-64
2021/08/18 04:58:54;;;;;;;13.13;6.28;;;;;;;19.23;57.45;100477.19;5053949;28;20453;-65
2021/08/18 05:01:21;;;;;;;20.23;7.28;;;;;;;19.24;57.40;100481.66;5053864;28;20068;-64
2021/08/18 05:03:48;;;;;;;18.73;6.30;;;;;;;19.24;57.27;100481.66;5053573;28;20052;-64
2021/08/18 05:06:15;;;;;;;20.85;6.57;;;;;;;19.17;57.67;100473.69;5053304;28;20083;-64
2021/08/18 05:08:42;;;;;;;21.50;6.95;;;;;;;19.23;57.72;100475.19;5053855;28;20468;-65
2021/08/18 05:11:09;;;;;;;18.60;6.40;;;;;;;19.22;57.65;100482.03;5062074;28;20655;-64
2021/08/18 05:13:35;;;;;;;14.98;7.30;;;;;;;19.13;57.50;100462.22;5072316;28;20519;-64
2021/08/18 05:16:03;;;;;;;23.83;8.80;;;;;;;19.18;57.57;100472.56;5073261;28;20068;-64
2021/08/18 05:18:29;;;;;;;17.98;7.47;;;;;;;19.23;57.64;100474.34;5072002;28;20050;-64
2021/08/18 05:20:56;;;;;;;14.95;6.80;;;;;;;19.25;57.55;100470.00;5055645;28;20133;-64
2021/08/18 05:23:24;;;;;;;19.90;7.70;;;;;;;19.14;57.53;100461.09;5072150;28;20106;-64
2021/08/18 05:25:51;;;;;;;17.08;6.20;;;;;;;19.24;57.54;100487.31;5073177;28;20135;-64
2021/08/18 05:28:18;;;;;;;18.10;6.90;;;;;;;19.28;57.72;100482.63;5055326;28;20072;-64
2021/08/18 05:30:45;;;;;;;18.33;6.70;;;;;;;19.24;57.32;100481.66;5064161;28;20123;-65
2021/08/18 05:33:12;;;;;;;18.77;7.10;;;;;;;19.14;57.72;100477.22;5053422;28;20144;-65
2021/08/18 05:35:39;;;;;;;13.93;6.43;;;;;;;19.07;57.93;100485.41;5052795;28;20099;-64
2021/08/18 05:38:06;;;;;;;17.13;6.30;;;;;;;19.01;58.25;100475.44;5053139;28;20049;-64
2021/08/18 05:40:32;;;;;;;18.23;7.18;;;;;;;19.06;58.36;100481.75;5051204;28;20127;-64
2021/08/18 05:42:59;;;;;;;18.17;6.13;;;;;;;19.08;58.23;100484.25;5066138;28;20049;-64
2021/08/18 05:45:26;;;;;;;16.67;6.30;;;;;;;19.06;57.88;100484.56;5052811;28;20044;-64
2021/08/18 05:47:53;;;;;;;16.48;6.50;;;;;;;19.05;58.04;100479.28;5062349;28;20068;-64
2021/08/18 05:50:20;;;;;;;12.00;6.10;;;;;;;19.08;58.17;100496.41;5070352;28;20076;-65
2021/08/18 05:52:47;;;;;;;18.63;6.43;;;;;;;19.03;58.27;100490.91;5072574;28;20139;-64
2021/08/18 05:55:14;;;;;;;24.27;6.35;;;;;;;18.99;57.85;100491.94;5071333;28;20057;-65
2021/08/18 05:57:41;;;;;;;14.65;5.90;;;;;;;18.92;58.39;100501.78;5072592;28;20123;-65
2021/08/18 06:00:09;;;;;;;12.23;5.57;;;;;;;18.95;58.51;100508.78;5072721;28;20127;-65
2021/08/18 06:02:36;;;;;;;16.50;6.57;;;;;;;18.90;58.27;100515.41;5053955;28;20051;-65
2021/08/18 06:05:03;;;;;;;20.33;6.13;;;;;;;18.81;58.39;100525.13;5060904;28;20095;-65
2021/08/18 06:07:30;;;;;;;18.02;6.22;;;;;;;18.72;59.08;100533.63;5052362;28;20481;-65
2021/08/18 06:09:57;;;;;;;13.30;5.53;;;;;;;18.49;59.19;100513.16;5052346;28;20141;-65
2021/08/18 06:12:24;;;;;;;17.92;6.40;;;;;;;18.51;59.46;100522.16;5064503;28;20131;-65
2021/08/18 06:14:51;;;;;;;12.32;5.82;;;;;;;18.43;59.47;100526.66;5072299;28;20152;-65
2021/08/18 06:17:18;;;;;;;13.30;6.15;;;;;;;18.34;59.40;100496.72;5072608;28;20072;-66
2021/08/18 06:19:44;;;;;;;12.80;5.53;;;;;;;18.47;59.59;100524.81;5072214;28;20083;-63
2021/08/18 06:22:11;;;;;;;22.33;5.82;;;;;;;18.40;59.87;100527.31;5071089;28;20518;-65
2021/08/18 06:24:42;;;;;;;13.52;6.18;;;;;;;18.44;60.04;100533.97;5072162;28;20079;-65
2021/08/18 06:27:12;;;;;;;12.65;6.10;;;;;;;18.63;59.56;100553.41;5071152;28;20154;-65
2021/08/18 06:29:39;;;;;;;12.35;5.75;;;;;;;18.81;59.47;100542.09;5054602;28;20465;-65
2021/08/18 06:32:07;;;;;;;9.95;5.60;;;;;;;18.99;59.07;100555.03;5072165;28;20080;-65
2021/08/18 06:34:34;;;;;;;13.88;6.55;;;;;;;19.18;59.27;100557.47;5070865;28;20139;-65
2021/08/18 06:37:02;;;;;;;12.40;5.38;;;;;;;19.23;58.91;100545.13;5071933;28;20546;-65
2021/08/18 06:39:37;;;;;;;17.25;7.72;;;;;;;19.46;58.44;100551.38;5055791;28;20044;-65
2021/08/18 06:42:04;;;;;;;12.15;5.70;;;;;;;19.78;58.25;100569.69;5067332;28;20380;-65
2021/08/18 06:44:31;;;;;;;18.13;8.48;;;;;;;20.01;58.05;100561.72;5070915;28;20080;-64
2021/08/18 06:46:58;;;;;;;14.45;6.78;;;;;;;20.14;57.57;100549.28;5071287;28;20475;-64
2021/08/18 06:49:25;;;;;;;24.92;11.65;;;;;;;20.45;57.55;100574.41;5072018;28;20444;-64
2021/08/18 06:51:52;;;;;;;22.23;11.25;;;;;;;20.62;57.52;100573.44;5071708;28;20079;-64
2021/08/18 06:54:18;;;;;;;31.17;17.63;;;;;;;20.79;57.52;100572.44;5051844;28;20132;-65
2021/08/18 06:56:45;;;;;;;24.23;13.50;;;;;;;21.00;57.42;100576.06;5070488;28;20131;-63
2021/08/18 06:59:12;;;;;;;27.83;12.30;;;;;;;20.91;57.13;100538.41;5092050;28;20094;-64
2021/08/18 07:01:39;;;;;;;27.40;11.48;;;;;;;21.34;57.13;100573.19;5081106;28;20072;-64
2021/08/18 07:04:06;;;;;;;17.95;8.43;;;;;;;21.53;56.86;100560.06;5058085;28;20052;-64
2021/08/18 07:06:34;;;;;;;27.75;9.77;;;;;;;21.71;56.45;100552.16;5074591;28;20087;-63
2021/08/18 07:09:01;;;;;;;25.85;9.57;;;;;;;21.91;56.19;100558.84;5075871;28;20109;-63
2021/08/18 07:11:29;;;;;;;20.42;8.50;;;;;;;22.14;56.00;100562.03;5075473;28;20041;-63
2021/08/18 07:13:59;;;;;;;21.95;9.77;;;;;;;22.30;55.62;100547.94;5056811;28;20045;-64
2021/08/18 07:16:31;;;;;;;27.92;10.20;;;;;;;22.38;55.37;100538.41;5064776;28;20467;-64
2021/08/18 07:18:59;;;;;;;17.75;7.68;;;;;;;22.71;54.96;100560.09;5075804;28;20464;-65
2021/08/18 07:21:26;;;;;;;20.75;8.13;;;;;;;22.94;54.01;100566.91;5074718;28;20076;-64
2021/08/18 07:23:54;;;;;;;19.08;8.05;;;;;;;23.21;53.70;100567.19;5075513;28;20135;-64
2021/08/18 07:26:24;;;;;;;15.52;7.13;;;;;;;23.46;52.93;100567.88;5075406;28;20076;-64
2021/08/18 07:28:52;;;;;;;24.17;6.95;;;;;;;23.64;52.63;100577.69;5073385;28;20044;-64
2021/08/18 07:31:19;;;;;;;24.98;7.85;;;;;;;23.79;52.04;100576.03;5055718;28;20076;-64
2021/08/18 07:33:46;;;;;;;14.13;7.57;;;;;;;24.02;51.72;100576.19;5037539;28;20041;-65
2021/08/18 07:36:13;;;;;;;23.05;8.38;;;;;;;24.31;50.95;100577.69;5055254;28;20129;-65
2021/08/18 07:38:40;;;;;;;24.83;10.02;;;;;;;24.58;49.95;100577.88;5059976;28;20049;-65
2021/08/18 07:41:07;;;;;;;19.92;7.32;;;;;;;24.83;49.51;100575.56;5066004;28;20139;-65
2021/08/18 07:43:33;;;;;;;14.98;6.53;;;;;;;24.95;48.72;100578.25;5095172;28;20131;-64
2021/08/18 07:46:00;;;;;;;19.50;6.35;;;;;;;25.11;48.56;100569.59;5074878;28;20052;-64
2021/08/18 07:48:29;;;;;;;11.75;5.43;;;;;;;25.24;47.75;100585.38;5074991;28;20060;-64
2021/08/18 07:50:57;;;;;;;16.15;4.95;;;;;;;25.29;47.59;100581.38;5074235;28;20068;-64
2021/08/18 07:53:24;;;;;;;15.50;6.15;;;;;;;25.45;47.03;100579.22;5074925;28;20091;-64
2021/08/18 07:55:51;;;;;;;13.93;5.43;;;;;;;25.66;46.37;100580.78;5074986;28;20148;-65
2021/08/18 07:58:20;;;;;;;11.65;6.03;;;;;;;25.87;46.12;100580.34;5073762;28;20064;-65
2021/08/18 08:00:46;;;;;;;12.07;6.05;;;;;;;26.17;45.83;100581.22;5074807;28;20131;-65
2021/08/18 08:03:14;;;;;;;16.70;6.72;;;;;;;26.30;45.35;100572.44;5069951;28;20055;-65
2021/08/18 08:05:41;;;;;;;16.80;6.00;;;;;;;26.43;44.72;100570.97;5054564;28;20084;-65
2021/08/18 08:08:08;;;;;;;19.13;7.07;;;;;;;26.64;44.58;100582.75;5054702;28;20049;-65
2021/08/18 08:10:35;;;;;;;13.80;5.65;;;;;;;26.74;44.07;100580.41;5054682;28;20489;-65
2021/08/18 08:13:04;;;;;;;12.13;5.63;;;;;;;26.82;44.05;100574.34;5068660;28;20056;-65
2021/08/18 08:15:31;;;;;;;15.95;6.50;;;;;;;27.00;43.29;100574.56;5074825;28;20044;-65
2021/08/18 08:17:58;;;;;;;16.25;7.35;;;;;;;27.19;43.23;100561.28;5056421;28;20044;-65
2021/08/18 08:20:27;;;;;;;13.52;5.72;;;;;;;27.47;42.97;100575.91;5068132;28;20383;-65
2021/08/18 08:22:54;;;;;;;12.50;5.30;;;;;;;27.67;42.46;100584.28;5054659;28;20405;-65
2021/08/18 08:25:22;;;;;;;16.60;6.43;;;;;;;27.82;42.04;100589.75;5054362;28;20296;-64
2021/08/18 08:27:49;;;;;;;10.23;6.10;;;;;;;27.82;41.97;100571.72;5054180;28;20052;-64
2021/08/18 08:30:16;;;;;;;15.95;7.35;;;;;;;28.02;41.57;100583.75;5038419;28;20045;-64
2021/08/18 08:32:43;;;;;;;18.25;6.65;;;;;;;28.25;41.40;100577.78;5054069;28;20070;-64
2021/08/18 08:35:11;;;;;;;14.77;6.57;;;;;;;28.41;40.67;100575.44;5070172;28;20123;-65
2021/08/18 08:37:38;;;;;;;27.42;7.15;;;;;;;28.55;40.27;100568.94;5072876;28;20132;-65
2021/08/18 08:40:05;;;;;;;31.77;7.05;;;;;;;28.81;39.88;100576.41;5073978;28;20473;-65
2021/08/18 08:42:32;;;;;;;15.45;7.70;;;;;;;28.95;39.58;100590.84;5073126;28;20123;-65
2021/08/18 08:45:02;;;;;;;13.63;5.32;;;;;;;29.15;39.03;100579.03;5073983;28;20540;-65
2021/08/18 08:47:29;;;;;;;19.08;6.13;;;;;;;29.37;38.79;100563.47;5072928;28;20114;-65
2021/08/18 08:49:57;;;;;;;11.10;5.65;;;;;;;29.47;38.23;100568.41;5073855;28;20139;-64
2021/08/18 08:52:24;;;;;;;11.40;5.80;;;;;;;29.52;37.94;100573.75;5073930;28;20404;-63
2021/08/18 08:54:51;;;;;;;12.25;6.50;;;;;;;29.65;37.86;100573.38;5063413;28;20584;-63
2021/08/18 08:57:18;;;;;;;12.32;5.72;;;;;;;29.87;36.94;100571.31;5066488;28;20052;-63
2021/08/18 08:59:44;;;;;;;16.17;6.13;;;;;;;29.97;37.26;100565.53;5073327;28;20136;-63
2021/08/18 09:02:13;;;;;;;13.50;5.85;;;;;;;30.23;36.75;100568.41;5073827;28;20117;-63
2021/08/18 09:04:40;;;;;;;18.75;6.55;;;;;;;30.34;36.86;100581.53;5072269;28;20097;-63
2021/08/18 09:07:13;;;;;;;14.70;5.85;;;;;;;30.45;36.87;100564.22;5073638;28;20087;-63
2021/08/18 09:09:50;;;;;;;13.13;5.85;;;;;;;30.53;36.37;100565.00;5073694;28;20076;-63
2021/08/18 09:12:18;;;;;;;14.55;5.65;;;;;;;30.69;36.11;100562.47;5067813;28;20359;-64
2021/08/18 09:14:45;;;;;;;16.48;5.22;;;;;;;30.79;36.32;100560.81;5073143;28;20136;-63
2021/08/18 09:17:31;;;;;;;12.40;5.10;;;;;;;31.08;35.59;100561.50;5072495;28;20554;-64
2021/08/18 09:20:10;;;;;;;14.23;5.38;;;;;;;31.12;35.63;100559.41;5072024;28;20045;-64
2021/08/18 09:22:44;;;;;;;;;;;;;;;31.13;36.73;100561.88;5072696;28;20045;-64
2021/08/18 09:25:23;;;;;;;33.80;6.70;;;;;;;31.67;35.13;100564.41;5072353;28;19921;-64
2021/08/18 09:27:51;;;;;;;15.63;5.72;;;;;;;32.07;34.75;100565.72;5071301;28;20122;-64
2021/08/18 09:30:34;;;;;;;10.57;4.55;;;;;;;32.32;33.68;100559.66;5052776;28;20044;-64
2021/08/18 09:33:12;;;;;;;16.70;6.10;;;;;;;32.44;33.96;100566.16;5070311;28;20119;-64
2021/08/18 09:35:41;;;;;;;16.10;5.63;;;;;;;32.63;33.52;100556.84;5073044;28;20162;-64
2021/08/18 09:38:10;;;;;;;13.18;5.70;;;;;;;32.65;33.21;100560.13;5065559;28;20103;-64
2021/08/18 09:40:42;;;;;;;23.77;7.28;;;;;;;32.77;33.63;100568.22;5073060;28;20048;-64
2021/08/18 09:43:25;;;;;;;16.90;4.88;;;;;;;32.76;33.32;100565.78;5071625;28;20079;-64
2021/08/18 09:45:58;;;;;;;20.55;7.68;;;;;;;33.00;33.00;100569.63;5062201;28;20489;-65
2021/08/18 09:48:27;;;;;;;20.67;6.38;;;;;;;33.19;33.01;100566.00;5052598;28;20045;-64
2021/08/18 09:50:58;;;;;;;13.85;6.22;;;;;;;33.45;32.46;100567.28;5055160;28;20461;-64
2021/08/18 09:53:26;;;;;;;21.80;5.47;;;;;;;33.43;32.30;100574.75;5072532;28;20072;-64
2021/08/18 09:56:09;;;;;;;18.65;6.57;;;;;;;33.45;32.36;100566.47;5073579;28;20077;-64
2021/08/18 09:58:37;;;;;;;18.40;7.50;;;;;;;33.63;32.44;100574.88;5065876;28;20124;-64
2021/08/18 10:01:10;;;;;;;17.52;5.80;;;;;;;33.82;32.22;100567.53;5051719;28;20127;-64
2021/08/18 10:03:39;;;;;;;14.45;5.88;;;;;;;34.00;31.62;100568.06;5049737;28;20052;-64
2021/08/18 10:06:07;;;;;;;19.17;6.10;;;;;;;34.31;31.20;100568.72;5071668;28;20048;-64
2021/08/18 10:08:35;;;;;;;13.18;6.00;;;;;;;34.58;30.78;100574.41;5071544;28;20313;-64
2021/08/18 10:11:04;;;;;;;12.30;5.10;;;;;;;34.77;30.66;100569.03;5071634;28;20480;-64
2021/08/18 10:13:31;;;;;;;13.10;5.32;;;;;;;34.91;30.04;100560.06;5070434;28;20484;-62
2021/08/18 10:15:58;;;;;;;12.85;4.75;;;;;;;34.87;30.00;100556.38;5071332;28;20531;-63
2021/08/18 10:18:40;;;;;;;11.95;5.70;;;;;;;35.20;29.83;100557.34;5053777;28;20051;-62
2021/08/18 10:21:22;;;;;;;16.88;5.50;;;;;;;35.49;29.60;100550.81;5051459;28;20562;-65
2021/08/18 10:23:57;;;;;;;17.65;5.50;;;;;;;35.68;29.50;100564.50;5033942;28;20044;-64
2021/08/18 10:26:33;;;;;;;18.10;5.50;;;;;;;35.89;29.18;100550.69;5051484;28;20045;-64
2021/08/18 10:29:06;;;;;;;11.27;5.20;;;;;;;36.00;29.02;100545.38;5051115;28;20489;-64
2021/08/18 10:31:50;;;;;;;10.95;5.38;;;;;;;35.98;29.03;100540.03;5058887;28;20052;-63
2021/08/18 10:34:26;;;;;;;17.45;5.05;;;;;;;36.11;28.86;100534.34;5071154;28;20052;-63
2021/08/18 10:36:54;;;;;;;12.90;5.50;;;;;;;36.27;28.07;100550.91;5061989;28;20128;-64
2021/08/18 10:39:21;;;;;;;13.45;5.75;;;;;;;36.47;28.01;100548.66;5051458;28;20140;-63
2021/08/18 10:42:04;;;;;;;10.65;5.65;;;;;;;36.47;28.44;100533.31;5050988;28;20053;-62
2021/08/18 10:44:48;;;;;;;10.18;5.60;;;;;;;36.52;28.04;100530.69;5050854;28;20135;-64
2021/08/18 10:47:27;;;;;;;13.70;5.40;;;;;;;36.52;27.54;100536.50;5060546;28;20128;-62
2021/08/18 10:49:57;;;;;;;11.73;5.28;;;;;;;36.58;27.80;100525.09;5070797;28;20136;-63
2021/08/18 10:52:30;;;;;;;13.40;5.97;;;;;;;36.62;27.19;100522.13;5070452;28;20124;-63
2021/08/18 10:57:51;;;;;;;13.27;4.65;;;;;;;37.02;26.49;100524.63;5069769;28;20392;-63
2021/08/18 11:00:23;;;;;;;12.95;5.68;;;;;;;37.53;26.47;100524.66;5065194;28;20053;-63
2021/08/18 11:02:55;;;;;;;13.20;4.85;;;;;;;38.34;25.04;100520.13;5049691;28;20045;-63
2021/08/18 11:05:42;;;;;;;10.77;4.88;;;;;;;39.10;24.22;100521.81;5049584;28;20069;-65
2021/08/18 11:08:19;;;;;;;15.23;4.45;;;;;;;39.17;24.92;100503.97;5060607;28;20075;-64
2021/08/18 11:10:53;;;;;;;10.80;5.20;;;;;;;38.95;24.78;100501.13;5068671;28;20072;-62
2021/08/18 11:13:36;;;;;;;14.30;5.18;;;;;;;38.71;24.81;100500.00;5068969;28;20139;-64
2021/08/18 11:16:12;;;;;;;10.25;4.93;;;;;;;38.52;24.73;100491.13;5060127;28;20088;-63
2021/08/18 11:18:51;;;;;;;10.75;4.75;;;;;;;38.36;25.02;100480.50;5049168;28;20091;-63
2021/08/18 11:21:31;;;;;;;13.18;4.18;;;;;;;38.25;24.52;100479.22;5049138;28;20370;-63
2021/08/18 11:24:08;;;;;;;9.68;4.40;;;;;;;38.26;24.77;100487.50;5048884;28;20524;-64
2021/08/18 11:26:41;;;;;;;15.93;5.25;;;;;;;38.07;25.31;100485.72;5049045;28;20045;-64
2021/08/18 11:29:12;;;;;;;9.05;4.38;;;;;;;38.17;25.33;100484.50;5048478;28;20124;-63